• Join FlightAware (Why Join?)
  • Login
  • US Flag 
08:49AM EST


 

Airport Tracker/Info


-or-


 

Live Flight TrackerFlight Track Log ✈ JTL556 ✈ 28-Jan-2014 ✈ KMGW - KSAT

Flight Track Log - Related Links

Times and Time Zones

All times are in EST time to prevent confusion due to time zone crossing. See the JTL556 flight status page for this flight to view local times or setup timezone preferences in your user account.

Time Position Orientation Groundspeed Altitude Reporting Facility
EST Latitude Longitude Course Direction KTS MPH feet Rate Location/Type
05:29PM 39.5989 -79.9472 237° Southwest 181 208 4,100  Level Cleveland Center
05:30PM 39.5683 -80.0067 236° Southwest 192 221 7,000 3,360 Climbing Cleveland Center
05:31PM 39.5233 -80.0908 235° Southwest 228 262 11,000 4,260 Climbing Cleveland Center
05:32PM 39.4831 -80.1600 233° Southwest 236 272 15,800 4,200 Climbing Cleveland Center
05:34PM 39.4386 -80.2169 225° Southwest 230 265 19,700 3,240 Climbing Cleveland Center
05:35PM 38.9847 -80.8306 237° Southwest  Level FlightAware Approximate
05:35PM 39.3861 -80.2936 228° Southwest 257 296 22,600  Level Cleveland Center
05:36PM 39.3381 -80.3603 227° Southwest 283 326 24,900 2,280 Climbing Cleveland Center
05:37PM 39.2894 -80.4433 233° Southwest 299 344 27,400 2,340 Climbing Cleveland Center
05:38PM 39.2600 -80.5381 248° West 289 333 29,800 1,200 Climbing Cleveland Center
05:39PM 39.2231 -80.6542 248° West 294 338 30,000 60 Climbing Cleveland Center
05:40PM 39.1922 -80.7492 247° West 290 334 30,000  Level Cleveland Center
05:41PM 39.1611 -80.8439 247° West 288 331 30,000  Level Cleveland Center
05:42PM 39.1300 -80.9394 247° West 289 333 30,100 1,500 Climbing Cleveland Center
05:43PM 39.0975 -81.0417 248° West 269 310 33,200 2,040 Climbing Cleveland Center
05:44PM 39.0694 -81.1250 247° West 260 299 34,400 1,020 Climbing Cleveland Center
05:45PM 39.0394 -81.2156 247° West 269 310 35,400 840 Climbing Cleveland Center
05:46PM 39.0089 -81.3078 247° West 279 321 36,200 900 Climbing Cleveland Center
05:47PM 38.9772 -81.4019 247° West 286 329 37,300 1,080 Climbing Cleveland Center
05:48PM 38.9472 -81.4958 248° West 286 329 38,500 960 Climbing Cleveland Center
05:49PM 38.9094 -81.6042 246° West 280 322 39,300 600 Climbing Cleveland Center
05:50PM 38.8783 -81.6994 247° West 286 329 39,800 300 Climbing Cleveland Center
05:51PM 38.8447 -81.7972 246° West 296 341 40,000 60 Climbing Cleveland Center
05:52PM 38.8103 -81.8994 247° West 308 354 40,000  Level Cleveland Center
05:53PM 38.7736 -82.0069 246° West 323 372 40,000  Level Cleveland Center
05:55PM 38.7225 -82.1597 247° West 323 372 40,000  Level Indianapolis Center
05:56PM 38.6856 -82.2653 246° West 324 373 40,000  Level Indianapolis Center
05:57PM 38.6489 -82.3714 246° West 327 376 40,000  Level Indianapolis Center
05:58PM 38.6058 -82.4961 246° West 329 379 40,000  Level Indianapolis Center
05:59PM 38.5683 -82.6022 246° West 329 379 40,000  Level Indianapolis Center
06:00PM 38.5319 -82.7097 247° West 330 380 40,000  Level Indianapolis Center
06:01PM 38.4950 -82.8150 246° West 326 375 40,000  Level Indianapolis Center
06:02PM 38.4589 -82.9200 246° West 324 373 40,000  Level Indianapolis Center
06:03PM 38.4214 -83.0250 246° West 325 374 40,000  Level Indianapolis Center
06:04PM 38.3778 -83.1467 245° Southwest 324 373 40,000  Level Indianapolis Center
06:05PM 38.3408 -83.2522 246° West 325 374 40,000  Level Indianapolis Center
06:06PM 38.3042 -83.3564 246° West 324 373 40,000  Level Indianapolis Center
06:07PM 38.2669 -83.4589 245° Southwest 321 369 40,000 180 Level Indianapolis Center
06:08PM 38.2308 -83.5628 246° West 321 369 40,400 420 Climbing Indianapolis Center
06:09PM 38.1931 -83.6642 245° Southwest 317 365 40,900 480 Climbing Indianapolis Center
06:10PM 38.1331 -83.7736 235° Southwest 324 373 41,400 480 Climbing Indianapolis Center
06:11PM 38.0825 -83.8683 236° Southwest 324 373 41,900 420 Climbing Indianapolis Center
06:12PM 38.0317 -83.9606 235° Southwest 320 368 42,300 420 Climbing Indianapolis Center
06:13PM 37.9814 -84.0511 235° Southwest 317 365 42,800 300 Climbing Indianapolis Center
06:14PM 37.9311 -84.1422 235° Southwest 316 364 43,000 60 Climbing Indianapolis Center
06:15PM 37.8808 -84.2356 236° Southwest 318 366 43,000  Level Indianapolis Center
06:16PM 37.8197 -84.3461 235° Southwest 326 375 43,000  Level Indianapolis Center
06:17PM 37.7667 -84.4431 235° Southwest 333 383 43,000  Level Indianapolis Center
06:18PM 37.7144 -84.5372 235° Southwest 329 379 43,000  Level Indianapolis Center
06:19PM 37.6625 -84.6317 235° Southwest 327 376 43,000  Level Indianapolis Center
06:20PM 37.6106 -84.7261 235° Southwest 326 375 43,000  Level Indianapolis Center
06:21PM 37.5583 -84.8192 235° Southwest 324 373 43,000  Level Indianapolis Center
06:22PM 37.4969 -84.9267 234° Southwest 324 373 43,000  Level Indianapolis Center
06:23PM 37.4478 -85.0164 235° Southwest 315 362 43,000  Level Indianapolis Center
06:24PM 37.3956 -85.1081 234° Southwest 318 366 43,000  Level Indianapolis Center
06:25PM 37.3447 -85.1992 235° Southwest 319 367 43,000  Level Indianapolis Center
06:26PM 37.2928 -85.2900 234° Southwest 318 366 43,000  Level Indianapolis Center
06:27PM 37.2417 -85.3806 235° Southwest 317 365 43,000  Level Indianapolis Center
06:29PM 37.1897 -85.4725 235° Southwest 319 367 43,000  Level Indianapolis Center
06:30PM 37.1350 -85.5697 235° Southwest 325 374 43,000  Level Indianapolis Center
06:31PM 37.0814 -85.6628 234° Southwest 326 375 43,000  Level Indianapolis Center
06:32PM 37.0197 -85.7692 234° Southwest 322 371 43,000  Level Indianapolis Center
06:33PM 36.9667 -85.8622 235° Southwest 324 373 43,000  Level Indianapolis Center
06:34PM 36.9128 -85.9550 234° Southwest 326 375 43,000  Level Indianapolis Center
06:35PM 36.8589 -86.0472 234° Southwest 326 375 43,000  Level Indianapolis Center
06:36PM 36.8053 -86.1411 235° Southwest 329 379 43,000  Level Indianapolis Center
06:37PM 36.7503 -86.2342 234° Southwest 330 380 43,000  Level Indianapolis Center
06:38PM 36.6944 -86.3281 233° Southwest 332 382 43,000  Level Memphis Center
06:39PM 36.6392 -86.4228 234° Southwest 334 384 43,000  Level Memphis Center
06:40PM 36.5833 -86.5167 233° Southwest 334 384 43,000  Level Memphis Center
06:41PM 36.5281 -86.6119 234° Southwest 336 387 43,000  Level Memphis Center
06:42PM 36.4625 -86.7231 234° Southwest 338 389 43,000  Level Memphis Center
06:43PM 36.4083 -86.8144 234° Southwest 339 390 43,000  Level Memphis Center
06:44PM 36.3522 -86.9075 233° Southwest 338 389 43,000  Level Memphis Center
06:45PM 36.2992 -87.0003 235° Southwest 337 388 43,000  Level Memphis Center
06:46PM 36.2422 -87.0961 234° Southwest 343 395 43,000  Level Memphis Center
06:47PM 36.1872 -87.1881 233° Southwest 335 386 43,000  Level Memphis Center
06:48PM 36.1308 -87.2800 233° Southwest 332 382 43,000  Level Memphis Center
06:49PM 36.0661 -87.3878 233° Southwest 331 381 43,000  Level Memphis Center
06:50PM 36.0111 -87.4797 234° Southwest 331 381 43,000  Level Memphis Center
06:51PM 35.9569 -87.5714 234° Southwest 328 377 43,000  Level Memphis Center
06:52PM 35.9014 -87.6617 233° Southwest 327 376 43,000  Level Memphis Center
06:53PM 35.8453 -87.7514 232° Southwest 328 377 43,000  Level Memphis Center
06:54PM 35.7917 -87.8417 234° Southwest 325 374 43,000  Level Memphis Center
06:55PM 35.7367 -87.9317 233° Southwest 324 373 43,000  Level Memphis Center
06:56PM 35.6825 -88.0203 233° Southwest 323 372 43,000  Level Memphis Center
06:57PM 35.6267 -88.1075 232° Southwest 323 372 43,000  Level Memphis Center
06:58PM 35.5764 -88.1928 234° Southwest 323 372 43,000  Level Memphis Center
06:59PM 35.5111 -88.2969 232° Southwest 321 369 43,000  Level Memphis Center
07:00PM 35.4564 -88.3858 233° Southwest 323 372 43,000  Level Memphis Center
07:01PM 35.4008 -88.4750 233° Southwest 323 372 43,000  Level Memphis Center
07:02PM 35.3464 -88.5631 233° Southwest 326 375 43,000  Level Memphis Center
07:03PM 35.2906 -88.6522 233° Southwest 326 375 43,000  Level Memphis Center
07:04PM 35.2353 -88.7392 232° Southwest 323 372 43,000  Level Memphis Center
07:05PM 35.1794 -88.8300 233° Southwest 328 377 43,000  Level Memphis Center
07:06PM 35.1233 -88.9183 232° Southwest 327 376 43,000  Level Memphis Center
07:07PM 35.0669 -89.0083 233° Southwest 329 379 43,000  Level Memphis Center
07:09PM 35.0097 -89.0978 232° Southwest 331 381 43,000  Level Memphis Center
07:10PM 34.9531 -89.1878 232° Southwest 330 380 43,000  Level Memphis Center
07:11PM 34.8961 -89.2772 232° Southwest 330 380 43,000  Level Memphis Center
07:12PM 34.8381 -89.3678 232° Southwest 334 384 43,000  Level Memphis Center
07:13PM 34.7803 -89.4583 232° Southwest 334 384 43,000  Level Memphis Center
07:14PM 34.7217 -89.5497 232° Southwest 336 387 43,000  Level Memphis Center
07:15PM 34.6628 -89.6436 233° Southwest 340 391 43,000  Level Memphis Center
07:16PM 34.6017 -89.7369 232° Southwest 344 396 43,000  Level Memphis Center
07:17PM 34.5308 -89.8481 232° Southwest 350 403 43,000  Level Memphis Center
07:18PM 34.4683 -89.9433 232° Southwest 354 407 43,000  Level Memphis Center
07:19PM 34.4069 -90.0397 232° Southwest 356 410 43,000  Level Memphis Center
07:20PM 34.3439 -90.1353 231° Southwest 358 412 43,000  Level Memphis Center
07:21PM 34.2819 -90.2292 231° Southwest 356 410 43,000  Level Memphis Center
07:22PM 34.2192 -90.3253 232° Southwest 359 413 43,000  Level Memphis Center
07:23PM 34.1564 -90.4217 232° Southwest 360 414 43,000  Level Memphis Center
07:24PM 34.0931 -90.5178 232° Southwest 362 417 43,000  Level Memphis Center
07:25PM 34.0303 -90.6133 232° Southwest 361 415 43,000  Level Memphis Center
07:26PM 33.9669 -90.7081 231° Southwest 359 413 43,000  Level Memphis Center
07:27PM 33.9044 -90.8014 231° Southwest 357 411 43,000  Level Memphis Center
07:28PM 33.8408 -90.8969 231° Southwest 360 414 43,000  Level Memphis Center
07:29PM 33.7739 -90.9992 232° Southwest 359 413 43,000  Level Memphis Center
07:30PM 33.7125 -91.0911 231° Southwest 356 410 43,000  Level Memphis Center
07:31PM 33.6475 -91.1856 230° Southwest 364 419 43,000  Level Memphis Center
07:32PM 33.5856 -91.2786 231° Southwest 362 417 43,000  Level Memphis Center
07:33PM 33.5231 -91.3711 231° Southwest 359 413 43,000  Level Memphis Center
07:34PM 33.4611 -91.4622 231° Southwest 356 410 43,000  Level Memphis Center
07:35PM 33.3989 -91.5539 231° Southwest 356 410 43,000  Level Memphis Center
07:36PM 33.3392 -91.6442 232° Southwest 353 406 43,000  Level Memphis Center
07:37PM 33.2778 -91.7356 231° Southwest 353 406 43,000  Level Memphis Center
07:38PM 33.2033 -91.8433 230° Southwest 352 405 43,000  Level Memphis Center
07:39PM 33.1414 -91.9325 230° Southwest 352 405 43,000  Level Memphis Center
07:40PM 33.0803 -92.0225 231° Southwest 351 404 43,000  Level Memphis Center
07:41PM 33.0219 -92.1081 231° Southwest 352 405 43,000  Level Memphis Center
07:42PM 32.9606 -92.1978 231° Southwest 355 409 43,000  Level Fort Worth Center
07:43PM 32.8983 -92.2881 231° Southwest 353 406 43,000  Level Fort Worth Center
07:44PM 32.8356 -92.3775 230° Southwest 352 405 43,000  Level Fort Worth Center
07:45PM 32.7606 -92.4853 230° Southwest 351 404 43,000  Level Fort Worth Center
07:46PM 32.6981 -92.5758 231° Southwest 354 407 43,000  Level Fort Worth Center
07:47PM 32.6353 -92.6653 230° Southwest 353 406 43,000  Level Fort Worth Center
07:48PM 32.5725 -92.7558 231° Southwest 354 407 43,000  Level Fort Worth Center
07:49PM 32.5094 -92.8461 230° Southwest 355 409 43,000  Level Fort Worth Center
07:50PM 32.4450 -92.9361 230° Southwest 356 410 43,000  Level Fort Worth Center
07:51PM 32.3744 -93.0375 231° Southwest 360 414 43,000  Level Fort Worth Center
07:52PM 32.3167 -93.1175 229° Southwest 359 413 43,000  Level Fort Worth Center
07:53PM 32.2528 -93.2092 231° Southwest 361 415 43,000  Level Fort Worth Center
07:54PM 32.1747 -93.3169 229° Southwest 361 415 43,000  Level Fort Worth Center
07:56PM 32.1181 -93.3989 231° Southwest 362 417 43,000  Level Fort Worth Center
07:56PM 32.0786 -93.4531 229° Southwest 359 413 43,000  Level Houston Center
07:57PM 32.0142 -93.5428 230° Southwest 359 413 43,000  Level Houston Center
07:58PM 31.9497 -93.6336 230° Southwest 360 414 43,000  Level Houston Center
07:59PM 31.8836 -93.7250 230° Southwest 362 417 43,000  Level Houston Center
08:00PM 31.8186 -93.8144 229° Southwest 363 418 43,000  Level Houston Center
08:01PM 31.7442 -93.9189 230° Southwest 365 420 43,000  Level Houston Center
08:02PM 31.6778 -94.0106 230° Southwest 367 422 43,000  Level Houston Center
08:03PM 31.6111 -94.1025 230° Southwest 368 423 43,000  Level Houston Center
08:04PM 31.5444 -94.1944 230° Southwest 369 425 43,000  Level Houston Center
08:05PM 31.4775 -94.2864 230° Southwest 369 425 43,000  Level Houston Center
08:06PM 31.4100 -94.3792 230° Southwest 370 426 43,000  Level Houston Center
08:07PM 31.3431 -94.4708 229° Southwest 370 426 43,000  Level Houston Center
08:08PM 31.2622 -94.5803 229° Southwest 370 426 43,000  Level Houston Center
08:09PM 31.2008 -94.6633 229° Southwest 370 426 43,000  Level Houston Center
08:10PM 31.1331 -94.7503 228° Southwest 367 422 43,000  Level Houston Center
08:11PM 31.0589 -94.8272 222° Southwest 367 422 43,000  Level Houston Center
08:12PM 30.9700 -94.9242 223° Southwest 365 420 43,000  Level Houston Center
08:13PM 30.8944 -95.0044 222° Southwest 365 420 43,000  Level Houston Center
08:14PM 30.8197 -95.0847 223° Southwest 365 420 43,000  Level Houston Center
08:15PM 30.7453 -95.1647 223° Southwest 365 420 43,000  Level Houston Center
08:16PM 30.6708 -95.2450 223° Southwest 365 420 43,000  Level Houston Center
08:17PM 30.5956 -95.3242 222° Southwest 365 420 43,000  Level Houston Center
08:18PM 30.5164 -95.4086 223° Southwest 364 419 43,000  Level Houston Center
08:19PM 30.4433 -95.4883 223° Southwest 362 417 43,000  Level Houston Center
08:20PM 30.3778 -95.5564 222° Southwest 356 410 43,000  Level Houston Center
08:22PM 30.3050 -95.6331 222° Southwest 356 410 43,000  Level Houston Center
08:23PM 30.2325 -95.7094 222° Southwest 355 409 43,000  Level Houston Center
08:24PM 30.1594 -95.7850 222° Southwest 353 406 43,000  Level Houston Center
08:25PM 30.0742 -95.8744 222° Southwest 350 403 43,000  Level Houston Center
08:26PM 30.0042 -95.9492 223° Southwest 346 398 43,000  Level Houston Center
08:27PM 29.9336 -96.0236 222° Southwest 343 395 43,000 -300 Level Houston Center
08:28PM 29.9072 -96.1244 253° West 334 384 42,400 -1,320 Descending Houston Center
08:29PM 29.9089 -96.2342 271° West 340 391 40,400 -1,980 Descending Houston Center
08:30PM 29.9092 -96.3444 270° West 344 396 38,400 -1,800 Descending Houston Center
08:31PM 29.9083 -96.4442 269° West 317 365 36,800 -1,560 Descending Houston Center
08:32PM 29.9050 -96.5439 268° West 312 359 35,300 -1,500 Descending Houston Center
08:33PM 29.8817 -96.6386 254° West 310 357 33,800 -1,560 Descending Houston Center
08:34PM 29.8642 -96.7436 259° West 343 395 32,200 -1,920 Descending Houston Center
08:35PM 29.8703 -96.8831 273° West 365 420 29,900 -2,340 Descending Houston Center
08:36PM 29.8736 -96.9986 272° West 364 419 27,500 -2,460 Descending Houston Center
08:37PM 29.8769 -97.1150 272° West 365 420 25,000 -2,280 Descending Houston Center
08:38PM 29.8806 -97.2264 272° West 355 409 22,900 -2,100 Descending Houston Center
08:39PM 29.8850 -97.3422 273° West 343 395 20,700 -1,980 Descending Houston Center
08:40PM 29.8864 -97.4358 271° West 328 377 18,900 -2,040 Descending Houston Center
08:40PM 29.8872 -97.4628 272° West 307 353 18,300 -1,920 Descending Houston Center
08:41PM 29.8903 -97.5489 272° West 302 348 17,000 -1,680 Descending Houston Center
08:42PM 29.8908 -97.6286 270° West 296 341 15,500 -1,800 Descending Houston Center
08:42PM 29.8917 -97.6422 274° West 297 342 15,200 -1,740 Descending Houston Center
08:43PM 29.8947 -97.7358 272° West 296 341 13,500 -1,260 Descending Houston Center
08:44PM 29.8956 -97.8067 271° West 286 329 13,000 -540 Descending Houston Center
08:44PM 29.8964 -97.8258 273° West 286 329 13,000 -720 Level Houston Center
08:45PM 29.8869 -97.8919 261° West 273 314 12,300 -1,140 Descending Houston Center
08:45PM 29.8781 -97.9153 246° West 273 314 11,900 -1,500 Descending Houston Center
08:46PM 29.8522 -97.9689 241° Southwest 267 307 10,800 -1,500 Descending Houston Center
08:46PM 29.8417 -97.9914 242° Southwest 271 312 10,400 -1,560 Descending Houston Center
08:47PM 29.8144 -98.0578 245° Southwest 268 308 9,100 -1,620 Descending Houston Center
08:47PM 29.8094 -98.0675 239° Southwest 269 310 8,800 -1,500 Descending Houston Center
08:48PM 29.7592 -98.1178 221° Southwest 279 321 7,600 -1,500 Descending Houston Center
08:48PM 29.7492 -98.1250 212° Southwest 276 318 7,300 -1,320 Descending Houston Center
08:49PM 29.6825 -98.1847 218° Southwest 280 322 6,000 -780 Descending Houston Center
08:50PM 29.6433 -98.2233 221° Southwest 269 310 6,000  Level Houston Center
08:50PM 29.6264 -98.2381 217° Southwest 264 304 6,000  Level Houston Center
08:51PM 29.5908 -98.2706 218° Southwest 238 274 6,000  Level Houston Center
08:51PM 29.5758 -98.2856 221° Southwest 237 273 6,000  Level Houston Center
08:52PM 29.5428 -98.3175 220° Southwest 218 251 6,000  Level Houston Center
08:52PM 29.5283 -98.3300 217° Southwest 224 258 6,000 -300 Level Houston Center
08:53PM 29.4964 -98.3614 221° Southwest 210 242 5,700 -600 Descending Houston Center
08:53PM 29.4825 -98.3736 217° Southwest 217 250 5,400 -1,020 Descending Houston Center
08:54PM 29.4500 -98.4031 218° Southwest 210 242 4,700 -1,140 Descending Houston Center
08:54PM 29.4411 -98.4250 245° Southwest 208 239 4,300 -1,020 Descending Houston Center
08:55PM 29.4300 -98.4606 250° West 184 212 3,700 -1,020 Descending Houston Center
08:55PM 29.4328 -98.4781 280° West 185 213 3,300 -720 Descending Houston Center
08:56PM 29.4517 -98.4892 333° Northwest 123 142 3,000 -540 Descending Houston Center
08:56PM 29.4644 -98.4925 347° North 126 145 2,800 -840 Descending Houston Center
08:57PM 29.4800 -98.5025 331° Northwest 101 116 2,200 -1,200 Descending Houston Center
08:57PM 29.4922 -98.5000 10° North 107 123 1,600 -900 Descending Houston Center
08:58PM 29.5081 -98.4872 35° Northeast 112 129 1,300 -600 Descending Houston Center
08:58PM 29.5167 -98.4764 48° Northeast 114 131 1,000 -840 Descending Houston Center